Time;durP1;ratioP1;P1;durP2;ratioP2;P2;SDS_P1;SDS_P2;PMS_P1;PMS_P2;Temp;Humidity;BMP_temperature;BMP_pressure;BME280_temperature;BME280_humidity;BME280_pressure;Samples;Min_cycle;Max_cycle;Signal;HPM_P1;HPM_P2
2021/07/22 00:02:20;;;;;;;24.6;19.2;;;;;;;16.99;84.32422;942.9315;;;;
2021/07/22 00:04:45;;;;;;;24.2;19.8;;;;;;;16.98;84.34766;942.8801;;;;
2021/07/22 00:07:10;;;;;;;24.1;18.7;;;;;;;16.96;84.54102;942.8521;;;;
2021/07/22 00:09:39;;;;;;;20.6;18;;;;;;;16.97;84.55273;942.8528;;;;
2021/07/22 00:12:03;;;;;;;22.2;18.9;;;;;;;16.99;84.38574;942.8711;;;;
2021/07/22 00:14:29;;;;;;;25.2;19.3;;;;;;;17.05;83.79395;942.8283;;;;
2021/07/22 00:16:53;;;;;;;24.6;18.9;;;;;;;17.04;83.80176;942.8381;;;;
2021/07/22 00:19:18;;;;;;;24.4;20.2;;;;;;;16.94;84.3291;942.816;;;;
2021/07/22 00:21:43;;;;;;;25.1;18.9;;;;;;;16.94;84.31543;942.8739;;;;
2021/07/22 00:24:09;;;;;;;23.7;19.2;;;;;;;16.88;84.67383;942.8663;;;;
2021/07/22 00:26:34;;;;;;;24;19;;;;;;;16.8;85.04297;942.8006;;;;
2021/07/22 00:29:00;;;;;;;26.5;20.1;;;;;;;16.85;84.77539;942.7121;;;;
2021/07/22 00:31:25;;;;;;;23.6;19.1;;;;;;;16.88;84.4082;942.7674;;;;
2021/07/22 00:33:51;;;;;;;25;19;;;;;;;16.9;84.19336;942.7126;;;;
2021/07/22 00:36:16;;;;;;;24.6;18.7;;;;;;;16.87;83.85156;942.6516;;;;
2021/07/22 00:38:42;;;;;;;22.2;19.1;;;;;;;16.92;83.375;942.6472;;;;
2021/07/22 00:41:10;;;;;;;24.6;20.3;;;;;;;16.89;83.73926;942.6998;;;;
2021/07/22 00:43:35;;;;;;;25.8;19.7;;;;;;;16.49;86.01367;942.6358;;;;
2021/07/22 00:46:00;;;;;;;26;20.6;;;;;;;16.31;87.12305;942.5689;;;;
2021/07/22 00:48:27;;;;;;;23.4;19.5;;;;;;;16.22;87.66992;942.5494;;;;
2021/07/22 00:50:52;;;;;;;24.9;20;;;;;;;16.16;87.99512;942.6072;;;;
2021/07/22 00:53:18;;;;;;;25.7;20.6;;;;;;;16.25;87.56152;942.5154;;;;
2021/07/22 00:55:44;;;;;;;26.3;20.7;;;;;;;16.26;87.16992;942.5629;;;;
2021/07/22 00:58:09;;;;;;;25.6;20.2;;;;;;;16.19;87.3877;942.5452;;;;
2021/07/22 01:00:34;;;;;;;27;20.1;;;;;;;16.22;87.37109;942.5068;;;;
2021/07/22 01:03:01;;;;;;;24.3;19.1;;;;;;;16.27;86.92871;942.521;;;;
2021/07/22 01:05:26;;;;;;;24.7;19.8;;;;;;;16.29;86.73633;942.5563;;;;
2021/07/22 01:07:53;;;;;;;24.2;19.4;;;;;;;16.33;86.45605;942.5785;;;;
2021/07/22 01:10:18;;;;;;;23.2;19.3;;;;;;;16.35;86.2627;942.6058;;;;
2021/07/22 01:12:46;;;;;;;24.6;19;;;;;;;16.38;86.19824;942.5726;;;;
2021/07/22 01:15:12;;;;;;;23.9;19.2;;;;;;;16.4;85.98438;942.5106;;;;
2021/07/22 01:17:38;;;;;;;25.8;20;;;;;;;16.46;85.56641;942.5435;;;;
2021/07/22 01:20:03;;;;;;;23.6;19.5;;;;;;;16.32;85.93164;942.5134;;;;
2021/07/22 01:22:30;;;;;;;23;18;;;;;;;16.33;85.7041;942.4628;;;;
2021/07/22 01:24:55;;;;;;;25.4;19.6;;;;;;;16.37;85.60645;942.5349;;;;
2021/07/22 01:27:24;;;;;;;24.4;19.2;;;;;;;16.43;85.5498;942.4866;;;;
2021/07/22 01:29:49;;;;;;;22.3;18.6;;;;;;;16.41;85.40723;942.5161;;;;
2021/07/22 01:32:19;;;;;;;23.5;19.2;;;;;;;16.4;85.49609;942.5106;;;;
2021/07/22 01:34:48;;;;;;;23.9;19.5;;;;;;;16.44;85.35449;942.5227;;;;
2021/07/22 01:37:20;;;;;;;23.6;19.3;;;;;;;16.42;85.28125;942.5092;;;;
2021/07/22 01:39:50;;;;;;;23.7;19;;;;;;;16.47;84.9082;942.4959;;;;
2021/07/22 01:42:15;;;;;;;21.7;18.5;;;;;;;16.41;84.83984;942.5017;;;;
2021/07/22 01:44:40;;;;;;;24.6;18.8;;;;;;;16.24;85.54688;942.5027;;;;
2021/07/22 01:47:05;;;;;;;23.7;18.6;;;;;;;16.16;86.0752;942.5189;;;;
2021/07/22 01:49:31;;;;;;;25.8;20.3;;;;;;;15.96;87.27246;942.4874;;;;
2021/07/22 01:51:56;;;;;;;25.7;20.7;;;;;;;15.74;88.54688;942.4534;;;;
2021/07/22 01:54:22;;;;;;;24.9;20.4;;;;;;;15.73;88.75293;942.4102;;;;
2021/07/22 01:56:47;;;;;;;23.3;19.3;;;;;;;15.88;88.04297;942.5126;;;;
2021/07/22 01:59:15;;;;;;;25.4;18.8;;;;;;;16.01;87.07422;942.5458;;;;
2021/07/22 02:01:40;;;;;;;26;19.5;;;;;;;16.06;86.89941;942.5355;;;;
2021/07/22 02:04:07;;;;;;;28.5;20.2;;;;;;;16.12;86.55176;942.54;;;;
2021/07/22 02:06:32;;;;;;;23.2;19.4;;;;;;;16.12;86.35547;942.5488;;;;
2021/07/22 02:08:58;;;;;;;25;19.3;;;;;;;16.14;86.38379;942.5455;;;;
2021/07/22 02:11:24;;;;;;;25.6;19.2;;;;;;;16.15;86.01563;942.5125;;;;
2021/07/22 02:13:51;;;;;;;24.4;18.9;;;;;;;16.11;86.01953;942.4822;;;;
2021/07/22 02:16:19;;;;;;;23.1;19.3;;;;;;;16.06;86.04395;942.4439;;;;
2021/07/22 02:18:45;;;;;;;22.8;19.1;;;;;;;16;86.38965;942.435;;;;
2021/07/22 02:21:10;;;;;;;24.4;19.2;;;;;;;15.99;86.33008;942.5042;;;;
2021/07/22 02:23:38;;;;;;;22.7;19;;;;;;;15.97;86.30566;942.5323;;;;
2021/07/22 02:26:03;;;;;;;25.1;19.8;;;;;;;16;86.24121;942.5524;;;;
2021/07/22 02:28:29;;;;;;;24.5;19.2;;;;;;;16;86.06641;942.5411;;;;
2021/07/22 02:30:54;;;;;;;26.2;20;;;;;;;15.96;86.09375;942.4866;;;;
2021/07/22 02:33:20;;;;;;;25.1;20;;;;;;;15.92;86.35059;942.5286;;;;
2021/07/22 02:35:45;;;;;;;24.7;19.2;;;;;;;15.85;86.5459;942.5337;;;;
2021/07/22 02:38:12;;;;;;;23.1;19.7;;;;;;;15.8;86.82617;942.5376;;;;
2021/07/22 02:40:37;;;;;;;24.4;19.9;;;;;;;15.72;87.08789;942.5419;;;;
2021/07/22 02:43:03;;;;;;;24.8;19.5;;;;;;;15.65;87.75488;942.5374;;;;
2021/07/22 02:45:28;;;;;;;23.6;19.9;;;;;;;15.72;87.16699;942.538;;;;
2021/07/22 02:47:54;;;;;;;26.3;20.3;;;;;;;15.65;87.41992;942.5405;;;;
2021/07/22 02:50:19;;;;;;;26.6;20.6;;;;;;;15.44;88.84277;942.5967;;;;
2021/07/22 02:52:47;;;;;;;26.5;20.8;;;;;;;15.47;88.7002;942.5485;;;;
2021/07/22 02:55:13;;;;;;;27.7;20.5;;;;;;;15.54;88.00879;942.5539;;;;
2021/07/22 02:57:38;;;;;;;26.1;20.4;;;;;;;15.59;87.64941;942.5332;;;;
2021/07/22 03:00:03;;;;;;;24.7;20.1;;;;;;;15.6;87.65137;942.5187;;;;
2021/07/22 03:02:31;;;;;;;25.5;20.7;;;;;;;15.67;87.41211;942.5099;;;;
2021/07/22 03:04:56;;;;;;;25.9;20.3;;;;;;;15.69;87.21875;942.5564;;;;
2021/07/22 03:07:24;;;;;;;22.8;19.8;;;;;;;15.72;86.86816;942.6053;;;;
2021/07/22 03:09:49;;;;;;;23.7;19.1;;;;;;;15.72;86.50781;942.6174;;;;
2021/07/22 03:12:16;;;;;;;26.3;21.1;;;;;;;15.73;86.625;942.5394;;;;
2021/07/22 03:14:41;;;;;;;24.8;19.6;;;;;;;15.67;86.75293;942.6417;;;;
2021/07/22 03:17:10;;;;;;;26.8;20.5;;;;;;;15.6;86.87793;942.7034;;;;
2021/07/22 03:19:39;;;;;;;26.1;20.6;;;;;;;15.59;86.7002;942.6849;;;;
2021/07/22 03:22:04;;;;;;;29.2;21.5;;;;;;;15.62;87.06543;942.6827;;;;
2021/07/22 03:24:32;;;;;;;25.8;21.1;;;;;;;15.6;87.5127;942.7122;;;;
2021/07/22 03:26:57;;;;;;;26.3;20.5;;;;;;;15.57;87.31055;942.7159;;;;
2021/07/22 03:29:24;;;;;;;25.4;20.6;;;;;;;15.54;87.28223;942.741;;;;
2021/07/22 03:31:50;;;;;;;26.7;20.5;;;;;;;15.5;87.70117;942.7001;;;;
2021/07/22 03:34:17;;;;;;;23.9;20;;;;;;;15.47;87.70703;942.7266;;;;
2021/07/22 03:36:44;;;;;;;25;20.1;;;;;;;15.44;87.66699;942.673;;;;
2021/07/22 03:39:09;;;;;;;25.1;19.4;;;;;;;15.46;87.72656;942.7018;;;;
2021/07/22 03:41:34;;;;;;;25.6;19.8;;;;;;;15.3;88.62891;942.6666;;;;
2021/07/22 03:44:01;;;;;;;26;20.2;;;;;;;15.24;89.12793;942.6393;;;;
2021/07/22 03:46:26;;;;;;;26.6;19.8;;;;;;;15.26;89.17773;942.6626;;;;
2021/07/22 03:48:54;;;;;;;25.5;20.5;;;;;;;15.26;89.12891;942.5823;;;;
2021/07/22 03:51:19;;;;;;;25.9;19.6;;;;;;;15.26;89.32715;942.5808;;;;
2021/07/22 03:53:44;;;;;;;24.1;19.7;;;;;;;15.31;88.98047;942.6055;;;;
2021/07/22 03:56:09;;;;;;;24.9;20.1;;;;;;;15.33;88.54199;942.6111;;;;
2021/07/22 03:58:36;;;;;;;26;20.4;;;;;;;15.21;88.60059;942.5765;;;;
2021/07/22 04:02:37;;;;;;;25.6;20.4;;;;;;;15.3;88.26074;942.5967;;;;
2021/07/22 04:05:02;;;;;;;26.4;20.1;;;;;;;15.32;88.42676;942.5686;;;;
2021/07/22 04:07:31;;;;;;;24.8;20.4;;;;;;;15.32;88.25293;942.6448;;;;
2021/07/22 04:09:56;;;;;;;26.4;19.6;;;;;;;15.32;88.0918;942.6761;;;;
2021/07/22 04:12:23;;;;;;;26.2;20.1;;;;;;;15.41;87.58887;942.6679;;;;
2021/07/22 04:14:48;;;;;;;25.5;19.6;;;;;;;15.24;88.34277;942.6417;;;;
2021/07/22 04:17:18;;;;;;;26.2;20.1;;;;;;;15.06;89.57324;942.6264;;;;
2021/07/22 04:19:46;;;;;;;26.7;19.3;;;;;;;15.07;89.45996;942.6312;;;;
2021/07/22 04:22:13;;;;;;;24.9;20.6;;;;;;;15.12;89.26367;942.6472;;;;
2021/07/22 04:24:37;;;;;;;25.3;19.7;;;;;;;15;90.10449;942.627;;;;
2021/07/22 04:27:08;;;;;;;27.2;20.5;;;;;;;15.08;89.9248;942.5695;;;;
2021/07/22 04:29:31;;;;;;;26.7;20.7;;;;;;;15.17;89.2959;942.6536;;;;
2021/07/22 04:31:56;;;;;;;27.2;20.1;;;;;;;14.95;90.28711;942.6317;;;;
2021/07/22 04:34:21;;;;;;;24.5;20.7;;;;;;;14.96;91.09863;942.6742;;;;
2021/07/22 04:36:48;;;;;;;29.1;20.7;;;;;;;15.06;90.51953;942.6489;;;;
2021/07/22 04:39:13;;;;;;;30.7;21.4;;;;;;;15.14;90.25;942.7065;;;;
2021/07/22 04:41:39;;;;;;;25.1;20.9;;;;;;;15.15;90.00684;942.7378;;;;
2021/07/22 04:44:04;;;;;;;25.6;20.6;;;;;;;14.89;91.32617;942.7008;;;;
2021/07/22 04:46:31;;;;;;;26.3;20.7;;;;;;;15.15;90.64355;942.7202;;;;
2021/07/22 04:48:56;;;;;;;23.9;19.8;;;;;;;15.32;89.51172;942.6183;;;;
2021/07/22 04:51:22;;;;;;;24.5;20.3;;;;;;;15.34;89.01855;942.6577;;;;
2021/07/22 04:53:47;;;;;;;25.1;19.4;;;;;;;15.45;88.72949;942.6304;;;;
2021/07/22 04:56:13;;;;;;;27.5;20;;;;;;;15.64;88.27051;942.7123;;;;
2021/07/22 04:58:38;;;;;;;24.1;19.2;;;;;;;15.8;87.19629;942.6853;;;;
2021/07/22 05:01:05;;;;;;;25.3;19.4;;;;;;;15.85;86.5791;942.6494;;;;
2021/07/22 05:03:29;;;;;;;23.8;19.6;;;;;;;15.92;86.80176;942.637;;;;
2021/07/22 05:05:55;;;;;;;25.1;19.4;;;;;;;16.03;86.32617;942.5999;;;;
2021/07/22 05:08:20;;;;;;;26.3;19.9;;;;;;;15.91;85.93262;942.572;;;;
2021/07/22 05:10:49;;;;;;;23.8;19.9;;;;;;;15.48;88.44824;942.5549;;;;
2021/07/22 05:13:14;;;;;;;25.6;20.2;;;;;;;15.54;88.65723;942.6013;;;;
2021/07/22 05:15:49;;;;;;;25;19.8;;;;;;;15.69;88.27051;942.5541;;;;
2021/07/22 05:18:14;;;;;;;25.1;19.6;;;;;;;15.98;88.73535;942.5508;;;;
2021/07/22 05:20:41;;;;;;;23.5;16.6;;;;;;;17.06;83.44727;942.5836;;;;
2021/07/22 05:23:06;;;;;;;24.6;17.5;;;;;;;18.21;78.31055;942.5689;;;;
2021/07/22 05:25:32;;;;;;;23.3;16.5;;;;;;;19.25;73.06738;942.5464;;;;
2021/07/22 05:27:56;;;;;;;20.8;16.2;;;;;;;19.97;70.02344;942.5513;;;;
2021/07/22 05:30:23;;;;;;;20;16.6;;;;;;;21.11;65.78418;942.5839;;;;
2021/07/22 05:32:48;;;;;;;20.1;15;;;;;;;21.8;63.33203;942.535;;;;
2021/07/22 05:35:15;;;;;;;19.7;15.7;;;;;;;20.93;64.55176;942.5103;;;;
2021/07/22 05:37:40;;;;;;;21.7;15.7;;;;;;;21.23;64.39746;942.5449;;;;
2021/07/22 05:40:06;;;;;;;17.8;15.2;;;;;;;21.49;62.76074;942.4967;;;;
2021/07/22 05:42:31;;;;;;;19.5;15.6;;;;;;;22.49;61.35156;942.4919;;;;
2021/07/22 05:44:57;;;;;;;18.6;15.2;;;;;;;23.05;58.1875;942.4626;;;;
2021/07/22 05:47:23;;;;;;;19.1;15.1;;;;;;;22.9;58.45117;942.4362;;;;
2021/07/22 05:49:50;;;;;;;20.6;14.9;;;;;;;22.99;57.62891;942.3942;;;;
2021/07/22 05:52:15;;;;;;;18.7;15.3;;;;;;;23.16;57.9209;942.416;;;;
2021/07/22 05:54:41;;;;;;;20.3;15;;;;;;;23.61;56.50977;942.3521;;;;
2021/07/22 05:57:06;;;;;;;17.6;14.5;;;;;;;23.46;56.24219;942.4011;;;;
2021/07/22 05:59:33;;;;;;;17.2;14.4;;;;;;;23.97;55.43555;942.4183;;;;
2021/07/22 06:01:58;;;;;;;18.7;15;;;;;;;23.98;55.70801;942.383;;;;
2021/07/22 06:04:24;;;;;;;18.4;13.9;;;;;;;24.22;53.93555;942.3784;;;;
2021/07/22 06:06:49;;;;;;;20.5;15.1;;;;;;;24.91;52.60352;942.3644;;;;
2021/07/22 06:09:16;;;;;;;18.2;14.6;;;;;;;24.42;52.58105;942.3049;;;;
2021/07/22 06:11:41;;;;;;;17.4;14.1;;;;;;;24.31;53.72266;942.3318;;;;
2021/07/22 06:14:09;;;;;;;17;13.8;;;;;;;26.03;49.28125;942.3403;;;;
2021/07/22 06:16:37;;;;;;;18.1;14;;;;;;;26.05;48.89355;942.3387;;;;
2021/07/22 06:19:06;;;;;;;17.6;14;;;;;;;27.49;46.93848;942.2901;;;;
2021/07/22 06:21:31;;;;;;;16.4;14;;;;;;;27.06;46.0293;942.2539;;;;
2021/07/22 06:23:58;;;;;;;16.8;14.6;;;;;;;27.65;44.75977;942.2953;;;;
2021/07/22 06:26:23;;;;;;;17.8;13.7;;;;;;;28.75;45.36816;942.2572;;;;
2021/07/22 06:28:51;;;;;;;17;13.2;;;;;;;27.55;44.85645;942.259;;;;
2021/07/22 06:31:16;;;;;;;15.8;13.8;;;;;;;27.55;45.40234;942.2908;;;;
2021/07/22 06:33:42;;;;;;;16.2;12.6;;;;;;;28.94;43.00781;942.2858;;;;
2021/07/22 06:36:07;;;;;;;15.9;13.3;;;;;;;30.14;40.73535;942.2957;;;;
2021/07/22 06:38:34;;;;;;;15.2;13.1;;;;;;;29.47;40.55469;942.2211;;;;
2021/07/22 06:40:59;;;;;;;15.4;13.5;;;;;;;29.95;41.25391;942.2369;;;;
2021/07/22 06:43:29;;;;;;;14.9;12.3;;;;;;;30.83;39.00293;942.2453;;;;
2021/07/22 06:45:51;;;;;;;14.1;12.3;;;;;;;31.29;37.26074;942.2636;;;;
2021/07/22 06:48:18;;;;;;;13.4;11.7;;;;;;;30.53;38.58301;942.21;;;;
2021/07/22 06:50:43;;;;;;;14.6;11.8;;;;;;;29.67;40.27539;942.2634;;;;
2021/07/22 06:53:09;;;;;;;18;12.6;;;;;;;29.46;41.53125;942.2519;;;;
2021/07/22 06:55:34;;;;;;;15.8;11.7;;;;;;;30.36;39.71582;942.2405;;;;
2021/07/22 06:58:01;;;;;;;14.1;11.7;;;;;;;31.15;38.85156;942.1975;;;;
2021/07/22 07:00:26;;;;;;;14;12;;;;;;;29.85;40.41016;942.1408;;;;
2021/07/22 07:02:52;;;;;;;14.3;11.6;;;;;;;30.54;38.9668;942.0867;;;;
2021/07/22 07:05:17;;;;;;;14.1;11.8;;;;;;;30.15;40.52051;942.1398;;;;
2021/07/22 07:07:44;;;;;;;15.3;11.9;;;;;;;31.68;38.50195;942.0634;;;;
2021/07/22 07:10:09;;;;;;;17.8;12.2;;;;;;;31.52;37.26758;942.0552;;;;
2021/07/22 07:12:35;;;;;;;15.1;12.3;;;;;;;31.18;38.81836;942.0039;;;;
2021/07/22 07:15:00;;;;;;;14.7;12.4;;;;;;;30.23;39.63281;941.9531;;;;
2021/07/22 07:17:25;;;;;;;15.7;12.1;;;;;;;30.05;40.3457;941.9814;;;;
2021/07/22 07:19:52;;;;;;;13.5;11.9;;;;;;;32.19;37.16699;941.8875;;;;
2021/07/22 07:22:17;;;;;;;18;11.8;;;;;;;33.43;34.1543;941.9079;;;;
2021/07/22 07:24:45;;;;;;;13.7;12.2;;;;;;;31.89;36.75977;941.8235;;;;
2021/07/22 07:27:10;;;;;;;12.2;10.9;;;;;;;34.24;33.84277;941.8515;;;;
2021/07/22 07:29:35;;;;;;;13.8;10.7;;;;;;;35.42;30.76563;941.8242;;;;
2021/07/22 07:32:00;;;;;;;13.8;11.3;;;;;;;35;31.73926;941.7985;;;;
2021/07/22 07:34:27;;;;;;;12.5;11.2;;;;;;;35.52;31.44922;941.7537;;;;
2021/07/22 07:36:52;;;;;;;12.3;10.6;;;;;;;36.09;31.64551;941.75;;;;
2021/07/22 07:39:18;;;;;;;12.6;10.9;;;;;;;35.45;31.11816;941.7584;;;;
2021/07/22 07:41:43;;;;;;;12.1;10.7;;;;;;;36.48;28.98535;941.7601;;;;
2021/07/22 07:44:09;;;;;;;14.2;11.4;;;;;;;33.26;32.85547;941.787;;;;
2021/07/22 07:46:34;;;;;;;12.6;10.5;;;;;;;35.04;31.31934;941.7403;;;;
2021/07/22 07:49:00;;;;;;;12.5;10.2;;;;;;;34.44;31.83203;941.7688;;;;
2021/07/22 07:51:25;;;;;;;14.4;11.3;;;;;;;35.15;31.13281;941.7292;;;;
2021/07/22 07:53:53;;;;;;;13.1;10.4;;;;;;;36.16;32.40039;941.734;;;;
2021/07/22 07:56:18;;;;;;;12.9;10.8;;;;;;;35.39;30.61914;941.6921;;;;
2021/07/22 07:58:44;;;;;;;13.7;11.4;;;;;;;36.57;29.97168;941.6682;;;;
2021/07/22 08:01:09;;;;;;;12.6;10.6;;;;;;;37.97;27.90234;941.7287;;;;
2021/07/22 08:03:38;;;;;;;13;10.7;;;;;;;37.5;29.49902;941.7319;;;;
2021/07/22 08:06:02;;;;;;;15.6;11;;;;;;;36.8;31.00391;941.7525;;;;
2021/07/22 08:08:28;;;;;;;14.7;11;;;;;;;37.08;29.58008;941.7555;;;;
2021/07/22 08:10:58;;;;;;;12.5;10.5;;;;;;;37.14;29.34277;941.7473;;;;
2021/07/22 08:13:18;;;;;;;13.1;11.2;;;;;;;38.28;27.85938;941.7425;;;;
2021/07/22 08:15:50;;;;;;;12.8;11.3;;;;;;;37.63;28.79102;941.7238;;;;
2021/07/22 08:18:17;;;;;;;14.6;11.5;;;;;;;36.08;29.83105;941.647;;;;
2021/07/22 08:20:42;;;;;;;13;10.7;;;;;;;35.73;32.61133;941.6803;;;;
2021/07/22 08:23:07;;;;;;;13.6;11.8;;;;;;;36.68;30.64453;941.6789;;;;
2021/07/22 08:25:32;;;;;;;13.7;11.5;;;;;;;35.6;33.31445;941.6364;;;;
2021/07/22 08:28:02;;;;;;;14.6;10.8;;;;;;;36.12;32.43359;941.6346;;;;
2021/07/22 08:30:27;;;;;;;14.1;11.3;;;;;;;36.17;30.9375;941.6456;;;;
2021/07/22 08:32:52;;;;;;;11.8;10.3;;;;;;;35.44;32.61426;941.6066;;;;
2021/07/22 08:35:17;;;;;;;14.3;10.5;;;;;;;34.59;35.22949;941.574;;;;
2021/07/22 08:37:43;;;;;;;13.2;10.7;;;;;;;35.41;32.18945;941.5776;;;;
2021/07/22 08:40:08;;;;;;;12.7;10.9;;;;;;;34.8;33.25684;941.5511;;;;
2021/07/22 08:42:35;;;;;;;12.7;10.2;;;;;;;33.32;34.6875;941.543;;;;
2021/07/22 08:44:58;;;;;;;12.1;10.1;;;;;;;34.91;33.0957;941.532;;;;
2021/07/22 08:47:27;;;;;;;12.6;10.2;;;;;;;32.44;36.33594;941.4522;;;;
2021/07/22 08:49:53;;;;;;;13.1;10.5;;;;;;;31.84;39.61816;941.4622;;;;
2021/07/22 08:52:18;;;;;;;13.9;10.5;;;;;;;31.91;39.33691;941.4481;;;;
2021/07/22 08:54:43;;;;;;;12.9;10;;;;;;;30.92;39.41797;941.387;;;;
2021/07/22 08:57:10;;;;;;;14.8;10.3;;;;;;;32.57;39.2373;941.4467;;;;
2021/07/22 08:59:35;;;;;;;14.3;10.2;;;;;;;33.18;37.68066;941.4494;;;;
2021/07/22 09:02:00;;;;;;;11.7;10.1;;;;;;;32.51;37.74512;941.4378;;;;
2021/07/22 09:04:25;;;;;;;13.4;11.3;;;;;;;32.95;38.74219;941.4401;;;;
2021/07/22 09:06:50;;;;;;;14.4;10.5;;;;;;;31.41;39.58008;941.4267;;;;
2021/07/22 09:09:16;;;;;;;15.5;11.1;;;;;;;32.08;41.34082;941.4177;;;;
2021/07/22 09:11:41;;;;;;;12.4;10.2;;;;;;;34.52;34.0791;941.3954;;;;
2021/07/22 09:14:10;;;;;;;13.4;9.9;;;;;;;34.82;33.61914;941.4124;;;;
2021/07/22 09:16:38;;;;;;;14.5;10.1;;;;;;;35.73;34.00098;941.431;;;;
2021/07/22 09:19:06;;;;;;;13.7;10.9;;;;;;;36.17;31.10645;941.4417;;;;
2021/07/22 09:21:31;;;;;;;12.2;10;;;;;;;35.61;32.62695;941.4102;;;;
2021/07/22 09:24:00;;;;;;;10.6;9.1;;;;;;;36.25;30.79785;941.389;;;;
2021/07/22 09:26:25;;;;;;;12.9;9.7;;;;;;;34.97;32.5332;941.4119;;;;
2021/07/22 09:28:51;;;;;;;12.1;9.6;;;;;;;34.1;35.37305;941.4131;;;;
2021/07/22 09:31:16;;;;;;;11.8;9.8;;;;;;;34.6;33.82031;941.3883;;;;
2021/07/22 09:33:45;;;;;;;13.4;10.2;;;;;;;33.98;36.77148;941.3864;;;;
2021/07/22 09:36:10;;;;;;;10.7;9.6;;;;;;;35.09;33.74805;941.3324;;;;
2021/07/22 09:38:41;;;;;;;11.6;9.7;;;;;;;33.62;36.70703;941.301;;;;
2021/07/22 09:41:06;;;;;;;12.7;9.6;;;;;;;34.43;36.24121;941.2492;;;;
2021/07/22 09:43:32;;;;;;;11.4;9.9;;;;;;;31.43;41.1748;941.2103;;;;
2021/07/22 09:45:57;;;;;;;13;10.3;;;;;;;30.84;41.75391;941.1624;;;;
2021/07/22 09:48:27;;;;;;;13.8;10.5;;;;;;;30.96;40.61719;941.1527;;;;
2021/07/22 09:50:58;;;;;;;12.9;10;;;;;;;30.45;44.10742;941.1767;;;;
2021/07/22 09:53:25;;;;;;;11.9;10.2;;;;;;;30.7;41.71777;941.1078;;;;
2021/07/22 09:55:49;;;;;;;15.7;10.3;;;;;;;29.93;43.28027;941.1038;;;;
2021/07/22 09:58:18;;;;;;;13.5;10.4;;;;;;;29.19;45.7002;941.0964;;;;
2021/07/22 10:00:43;;;;;;;17.9;10.5;;;;;;;28.95;46.65039;941.1417;;;;
2021/07/22 10:03:10;;;;;;;13.3;10.2;;;;;;;29.8;43.5791;941.1086;;;;
2021/07/22 10:05:35;;;;;;;13.9;10.3;;;;;;;30.49;43.4668;941.045;;;;
2021/07/22 10:08:00;;;;;;;12.7;10;;;;;;;30.85;43.09375;940.9958;;;;
2021/07/22 10:10:27;;;;;;;15.1;9.7;;;;;;;31.18;40.76855;940.9703;;;;
2021/07/22 10:12:52;;;;;;;13.3;10.4;;;;;;;30.27;44.10156;940.9991;;;;
2021/07/22 10:15:44;;;;;;;13.7;10.4;;;;;;;29.86;48.2002;940.9827;;;;
2021/07/22 10:18:11;;;;;;;12.3;10.3;;;;;;;31.05;40.02734;940.963;;;;
2021/07/22 10:20:41;;;;;;;11.8;9.7;;;;;;;30.75;41.05176;940.9331;;;;
2021/07/22 10:23:10;;;;;;;11.8;9.6;;;;;;;30.91;39.94238;940.9402;;;;
2021/07/22 10:25:35;;;;;;;15.1;10.3;;;;;;;31.33;37.39551;940.9318;;;;
2021/07/22 10:28:02;;;;;;;12.5;9.2;;;;;;;31.79;39.14648;940.9613;;;;
2021/07/22 10:30:27;;;;;;;13.2;10.6;;;;;;;30.27;41.16406;940.8502;;;;
2021/07/22 10:32:56;;;;;;;12.6;10;;;;;;;30.51;41.30566;940.8786;;;;
2021/07/22 10:35:22;;;;;;;12.2;9.8;;;;;;;29.89;41.11816;940.748;;;;
2021/07/22 10:37:47;;;;;;;11.4;9.9;;;;;;;28.92;45.62402;940.8834;;;;
2021/07/22 10:40:13;;;;;;;12;9.8;;;;;;;30.18;41.59668;940.8211;;;;
2021/07/22 10:42:38;;;;;;;13.4;9.9;;;;;;;29.57;44.5918;940.7355;;;;
2021/07/22 10:45:03;;;;;;;14.1;10.9;;;;;;;28.99;45.58398;940.7431;;;;
2021/07/22 10:47:31;;;;;;;14.8;10.4;;;;;;;28.93;44.82715;940.7417;;;;
2021/07/22 10:49:56;;;;;;;13.2;9.8;;;;;;;29.27;43.89648;940.7723;;;;
2021/07/22 10:52:23;;;;;;;13;10;;;;;;;29.97;40.36133;940.7094;;;;
2021/07/22 10:54:51;;;;;;;14.8;9.7;;;;;;;30.44;39.04199;940.7263;;;;
2021/07/22 10:57:13;;;;;;;13.4;10.6;;;;;;;30.22;40.84961;940.6719;;;;
2021/07/22 10:59:39;;;;;;;14.4;10;;;;;;;30.77;38.85449;940.6209;;;;
2021/07/22 11:02:04;;;;;;;13.5;9.9;;;;;;;30.74;39.61719;940.6236;;;;
2021/07/22 11:04:29;;;;;;;14.2;9.9;;;;;;;30.89;39.31934;940.6033;;;;
2021/07/22 11:06:54;;;;;;;12.1;9.7;;;;;;;30.27;40.4248;940.532;;;;
2021/07/22 11:09:20;;;;;;;16.6;10.8;;;;;;;29.89;43.51563;940.6077;;;;
2021/07/22 11:11:48;;;;;;;14.7;10.5;;;;;;;30.05;40.63086;940.6369;;;;
2021/07/22 11:14:13;;;;;;;15;10.3;;;;;;;29.71;40.17188;940.5569;;;;
2021/07/22 11:16:38;;;;;;;13.3;10.2;;;;;;;28.88;44.38184;940.5758;;;;
2021/07/22 11:19:06;;;;;;;13.7;10.3;;;;;;;28.84;44.72363;940.5464;;;;
2021/07/22 11:21:32;;;;;;;17.7;10.7;;;;;;;28.45;43.72168;940.5623;;;;
2021/07/22 11:23:58;;;;;;;14.1;10.3;;;;;;;28.38;45.15332;940.5392;;;;
2021/07/22 11:26:23;;;;;;;13.5;10.1;;;;;;;28.84;44.12891;940.4529;;;;
2021/07/22 11:28:48;;;;;;;14.1;10.2;;;;;;;29.04;43.82617;940.4649;;;;
2021/07/22 11:31:14;;;;;;;14.3;10.1;;;;;;;29.15;42.51563;940.4708;;;;
2021/07/22 11:33:41;;;;;;;15.4;10.3;;;;;;;28.92;44.30273;940.4249;;;;
2021/07/22 11:36:08;;;;;;;13.3;10.7;;;;;;;28.72;45.24707;940.426;;;;
2021/07/22 11:38:33;;;;;;;15.2;11.1;;;;;;;28.36;47.42188;940.3879;;;;
2021/07/22 11:40:59;;;;;;;17.8;11.1;;;;;;;28.04;46.4502;940.3674;;;;
2021/07/22 11:43:24;;;;;;;16.6;11;;;;;;;27.94;46.77246;940.3759;;;;
2021/07/22 11:45:54;;;;;;;15.7;10.8;;;;;;;28.29;45.58398;940.3304;;;;
2021/07/22 11:48:19;;;;;;;13.8;10.3;;;;;;;28.55;44.07715;940.2698;;;;
2021/07/22 11:50:45;;;;;;;17.2;10.4;;;;;;;28.52;44.4541;940.302;;;;
2021/07/22 11:53:10;;;;;;;14.1;10.2;;;;;;;28.56;44.61328;940.243;;;;
2021/07/22 11:55:37;;;;;;;12.5;10.8;;;;;;;28.55;45.25293;940.2413;;;;
2021/07/22 11:58:02;;;;;;;12.5;10.2;;;;;;;28.86;45.32031;940.2333;;;;
2021/07/22 12:00:27;;;;;;;13.5;9.8;;;;;;;28.77;45.26465;940.1936;;;;
2021/07/22 12:02:52;;;;;;;13.7;10.7;;;;;;;28.26;47.25684;940.1978;;;;
2021/07/22 12:05:17;;;;;;;15;11;;;;;;;28.38;45.78418;940.2023;;;;
2021/07/22 12:07:43;;;;;;;13.4;10.5;;;;;;;28.58;44.91113;940.1956;;;;
2021/07/22 12:10:12;;;;;;;15.1;10.9;;;;;;;28.23;46.58887;940.1685;;;;
2021/07/22 12:12:37;;;;;;;12.5;10.4;;;;;;;28.19;48.34375;940.159;;;;
2021/07/22 12:15:07;;;;;;;13.3;10.6;;;;;;;28.14;48.64551;940.0927;;;;
2021/07/22 12:17:32;;;;;;;17.6;11.5;;;;;;;27.85;48.21191;940.0547;;;;
2021/07/22 12:19:59;;;;;;;14.5;11.6;;;;;;;27.85;46.90527;939.9913;;;;
2021/07/22 12:22:24;;;;;;;13.7;11.2;;;;;;;27.67;49.09473;940.0011;;;;
2021/07/22 12:24:52;;;;;;;16.4;11.3;;;;;;;27.78;48.23926;939.9703;;;;
2021/07/22 12:27:17;;;;;;;15.8;11.2;;;;;;;28.07;47.47363;939.9295;;;;
2021/07/22 12:29:42;;;;;;;14.6;11.6;;;;;;;27.93;47.98242;939.9088;;;;
2021/07/22 12:32:07;;;;;;;14.3;11.3;;;;;;;27.83;48.54102;939.9364;;;;
2021/07/22 12:34:32;;;;;;;14.8;11.6;;;;;;;27.56;48.08594;939.9338;;;;
2021/07/22 12:36:57;;;;;;;15.6;12;;;;;;;27.72;47.54492;939.8669;;;;
2021/07/22 12:39:27;;;;;;;15.7;12;;;;;;;27.65;49.25879;939.9028;;;;
2021/07/22 12:41:48;;;;;;;17.7;12.2;;;;;;;27.95;48.98242;939.9339;;;;
2021/07/22 12:44:12;;;;;;;15.8;12.1;;;;;;;28.4;45.34473;939.8777;;;;
2021/07/22 12:46:40;;;;;;;15.6;12.1;;;;;;;28.81;44.62402;939.889;;;;
2021/07/22 12:49:05;;;;;;;16.7;11;;;;;;;28.84;44.7002;939.8748;;;;
2021/07/22 12:51:30;;;;;;;13.7;11.4;;;;;;;28.72;44.2832;939.8375;;;;
2021/07/22 12:53:56;;;;;;;15.3;11.8;;;;;;;28.36;47.23145;939.8549;;;;
2021/07/22 12:56:20;;;;;;;16.8;11.9;;;;;;;28.38;47.92383;939.8738;;;;
2021/07/22 12:58:46;;;;;;;18.6;11.6;;;;;;;27.97;47.48828;939.8561;;;;
2021/07/22 13:01:11;;;;;;;16.5;13.1;;;;;;;28.64;45.52539;939.8806;;;;
2021/07/22 13:03:37;;;;;;;15.8;12.8;;;;;;;28.15;47.29297;939.8759;;;;
2021/07/22 13:06:02;;;;;;;19.1;13;;;;;;;28.15;46.05762;939.8583;;;;
2021/07/22 13:08:27;;;;;;;15.3;12.8;;;;;;;27.96;49.05371;939.8248;;;;
2021/07/22 13:10:52;;;;;;;16.7;12.8;;;;;;;27.7;48.17188;939.7659;;;;
2021/07/22 13:13:18;;;;;;;16.3;13.1;;;;;;;27.68;48.48926;939.7729;;;;
2021/07/22 13:15:47;;;;;;;17.7;13.1;;;;;;;27.36;48.5625;939.7619;;;;
2021/07/22 13:18:12;;;;;;;17.6;13.9;;;;;;;27.57;47.16113;939.7205;;;;
2021/07/22 13:20:38;;;;;;;17.4;13.6;;;;;;;27.21;49.10254;939.6408;;;;
2021/07/22 13:23:03;;;;;;;18.3;13.5;;;;;;;27.21;48.66406;939.7601;;;;
2021/07/22 13:25:29;;;;;;;16.4;13.5;;;;;;;26.97;50.61719;939.8031;;;;
2021/07/22 13:27:54;;;;;;;16.9;14;;;;;;;26.64;49.39551;939.7625;;;;
2021/07/22 13:30:19;;;;;;;16.6;13.5;;;;;;;26.69;51.03613;939.7629;;;;
2021/07/22 13:32:47;;;;;;;16.6;13.6;;;;;;;26.64;51.87207;939.8218;;;;
2021/07/22 13:35:11;;;;;;;20.9;13.8;;;;;;;26.31;50.81543;939.8334;;;;
2021/07/22 13:37:36;;;;;;;16.7;13.4;;;;;;;26.61;49.33398;939.8262;;;;
2021/07/22 13:40:01;;;;;;;16.8;13.2;;;;;;;26.57;48.7373;939.875;;;;
2021/07/22 13:42:28;;;;;;;17;13.9;;;;;;;26.85;50.52148;939.8484;;;;
2021/07/22 13:44:53;;;;;;;16.1;13.7;;;;;;;26.52;48.83789;939.8301;;;;
2021/07/22 13:47:19;;;;;;;19.5;14;;;;;;;26.66;50.6416;939.8389;;;;
2021/07/22 13:49:44;;;;;;;17.7;13.2;;;;;;;27.03;48.2666;939.7806;;;;
2021/07/22 13:52:11;;;;;;;16;13.7;;;;;;;27.35;48.48926;939.819;;;;
2021/07/22 13:54:36;;;;;;;16.5;13.2;;;;;;;27.23;48.60645;939.8474;;;;
2021/07/22 13:57:01;;;;;;;17.6;13.3;;;;;;;27.47;46.87793;939.8032;;;;